Time;durP1;ratioP1;P1;durP2;ratioP2;P2;SDS_P1;SDS_P2;PMS_P1;PMS_P2;Temp;Humidity;BMP_temperature;BMP_pressure;BME280_temperature;BME280_humidity;BME280_pressure;Samples;Min_cycle;Max_cycle;Signal;HPM_P1;HPM_P2
2023/12/22 00:01:05;;;;;;;40.20;28.50;;;;;;;6.91;100.00;98737.88;109360;1253;61677;-57
2023/12/22 00:03:33;;;;;;;35.10;26.10;;;;;;;6.92;100.00;98741.47;109184;1253;59333;-57
2023/12/22 00:06:00;;;;;;;39.70;28.00;;;;;;;6.92;100.00;98736.13;109392;1252;74761;-57
2023/12/22 00:08:28;;;;;;;41.20;28.80;;;;;;;6.97;100.00;98733.02;109303;1255;66937;-57
2023/12/22 00:10:55;;;;;;;36.10;25.60;;;;;;;6.97;100.00;98724.86;109347;1254;72685;-58
2023/12/22 00:13:23;;;;;;;39.70;27.20;;;;;;;6.99;100.00;98723.83;109375;1254;61836;-57
2023/12/22 00:15:51;;;;;;;39.10;27.70;;;;;;;7.01;100.00;98720.76;109377;1253;60105;-58
2023/12/22 00:18:18;;;;;;;38.10;27.70;;;;;;;7.05;100.00;98724.18;109379;1253;74786;-61
2023/12/22 00:20:46;;;;;;;38.10;28.10;;;;;;;7.09;100.00;98719.52;109362;1252;67790;-57
2023/12/22 00:23:14;;;;;;;37.30;27.10;;;;;;;7.11;100.00;98711.95;109357;1253;71767;-57
2023/12/22 00:25:41;;;;;;;32.30;24.50;;;;;;;7.11;100.00;98705.17;109334;1253;61729;-57
2023/12/22 00:28:09;;;;;;;36.00;26.00;;;;;;;7.11;100.00;98703.02;109385;1256;60117;-57
2023/12/22 00:30:36;;;;;;;34.00;25.80;;;;;;;7.14;100.00;98702.52;109332;1253;73505;-57
2023/12/22 00:33:04;;;;;;;37.40;27.30;;;;;;;7.16;100.00;98699.28;109412;1253;67130;-59
2023/12/22 00:35:32;;;;;;;37.10;26.60;;;;;;;7.17;100.00;98689.44;109171;1254;72788;-58
2023/12/22 00:38:00;;;;;;;37.40;26.80;;;;;;;7.19;100.00;98686.29;109383;1253;60564;-58
2023/12/22 00:40:28;;;;;;;38.90;27.40;;;;;;;7.20;100.00;98685.30;109323;1254;58987;-58
2023/12/22 00:42:55;;;;;;;40.30;28.00;;;;;;;7.20;100.00;98682.58;109361;1253;73394;-59
2023/12/22 00:45:23;;;;;;;40.60;27.60;;;;;;;7.18;100.00;98682.21;109407;1252;65698;-58
2023/12/22 00:47:50;;;;;;;41.60;28.30;;;;;;;7.18;100.00;98678.88;109343;1253;71386;-58
2023/12/22 00:50:19;;;;;;;38.10;26.30;;;;;;;7.16;100.00;98678.95;109289;1253;60449;-63
2023/12/22 00:52:46;;;;;;;40.20;27.20;;;;;;;7.11;100.00;98675.20;109408;1254;60171;-58
2023/12/22 00:55:14;;;;;;;36.20;25.90;;;;;;;7.09;100.00;98675.56;109380;1252;75324;-58
2023/12/22 00:57:42;;;;;;;40.10;27.90;;;;;;;7.08;100.00;98672.86;109406;1254;67464;-57
2023/12/22 01:00:12;;;;;;;37.60;26.90;;;;;;;7.07;100.00;98667.27;109360;1255;71456;-58
2023/12/22 01:02:39;;;;;;;34.20;25.20;;;;;;;7.06;100.00;98661.34;109339;1253;62338;-57
2023/12/22 01:05:07;;;;;;;42.70;26.90;;;;;;;7.06;100.00;98658.31;109372;1253;60028;-59
2023/12/22 01:07:35;;;;;;;38.90;27.00;;;;;;;7.06;100.00;98654.59;109371;1252;74761;-57
2023/12/22 01:10:03;;;;;;;37.00;25.80;;;;;;;7.04;100.00;98652.33;109343;1254;65511;-58
2023/12/22 01:12:31;;;;;;;37.60;24.80;;;;;;;7.04;100.00;98646.23;109330;1254;71414;-60
2023/12/22 01:14:59;;;;;;;38.10;26.40;;;;;;;7.02;100.00;98645.31;109345;1255;61092;-57
2023/12/22 01:17:26;;;;;;;36.00;25.00;;;;;;;7.02;100.00;98642.25;109347;1252;58892;-58
2023/12/22 01:19:54;;;;;;;37.00;25.80;;;;;;;7.03;100.00;98638.97;109423;1254;74728;-58
2023/12/22 01:22:22;;;;;;;37.30;27.00;;;;;;;7.02;100.00;98642.56;109308;1257;66928;-63
2023/12/22 01:24:50;;;;;;;38.70;28.40;;;;;;;6.98;100.00;98648.42;109348;1253;72261;-58
2023/12/22 01:27:18;;;;;;;38.60;26.20;;;;;;;6.95;100.00;98652.80;109315;1254;61728;-58
2023/12/22 01:29:45;;;;;;;38.60;27.00;;;;;;;6.93;100.00;98656.11;109387;1254;58929;-57
2023/12/22 01:32:13;;;;;;;40.00;28.60;;;;;;;6.93;100.00;98654.95;109353;1253;74774;-57
2023/12/22 01:34:40;;;;;;;39.50;29.50;;;;;;;6.92;100.00;98647.94;109339;1252;66996;-60
2023/12/22 01:37:09;;;;;;;39.00;29.50;;;;;;;6.91;100.00;98649.37;109398;1252;71538;-58
2023/12/22 01:39:36;;;;;;;40.90;27.90;;;;;;;6.91;100.00;98644.31;109321;1253;61771;-58
2023/12/22 01:42:04;;;;;;;40.50;28.50;;;;;;;6.90;100.00;98637.38;109358;1253;60096;-57
2023/12/22 01:44:31;;;;;;;44.40;30.00;;;;;;;6.91;100.00;98638.14;109326;1251;74756;-60
2023/12/22 01:46:59;;;;;;;38.60;28.70;;;;;;;6.90;100.00;98639.64;109390;1253;67464;-57
2023/12/22 01:49:27;;;;;;;36.40;25.90;;;;;;;6.90;100.00;98636.23;109309;1253;71477;-57
2023/12/22 01:51:54;;;;;;;34.00;25.30;;;;;;;6.91;100.00;98638.34;109314;1253;61768;-58
2023/12/22 01:54:22;;;;;;;37.50;25.60;;;;;;;6.91;100.00;98640.41;109229;1252;60009;-63
2023/12/22 01:56:50;;;;;;;35.30;24.60;;;;;;;6.93;100.00;98637.14;109333;1253;73306;-58
2023/12/22 01:59:17;;;;;;;37.10;27.80;;;;;;;6.93;100.00;98634.19;109358;1254;66976;-57
2023/12/22 02:01:45;;;;;;;37.80;27.70;;;;;;;6.90;100.00;98629.80;109340;1254;72773;-58
2023/12/22 02:04:14;;;;;;;39.00;26.20;;;;;;;6.88;100.00;98627.92;109320;1253;61771;-58
2023/12/22 02:06:42;;;;;;;35.20;25.10;;;;;;;6.85;100.00;98626.26;109297;1252;59102;-61
2023/12/22 02:09:10;;;;;;;35.10;24.80;;;;;;;6.87;100.00;98621.91;109350;1254;72691;-57
2023/12/22 02:11:38;;;;;;;32.60;24.60;;;;;;;6.88;100.00;98617.73;109342;1253;67000;-57
2023/12/22 02:14:06;;;;;;;38.20;27.90;;;;;;;6.87;100.00;98616.85;109392;1251;72727;-57
2023/12/22 02:16:38;;;;;;;32.30;24.30;;;;;;;6.89;100.00;98616.69;109304;1252;60493;-57
2023/12/22 02:19:18;;;;;;;;;;;;;;;6.91;100.00;98612.35;109348;1254;60087;-57
2023/12/22 02:22:08;;;;;;;33.30;23.10;;;;;;;6.92;100.00;98607.58;109326;1252;74793;-58
2023/12/22 02:24:37;;;;;;;34.60;24.00;;;;;;;6.93;100.00;98608.48;109214;1253;65794;-57
2023/12/22 02:27:14;;;;;;;32.30;23.90;;;;;;;6.94;100.00;98608.17;109227;1253;71146;-57
2023/12/22 02:29:45;;;;;;;34.30;23.50;;;;;;;6.93;100.00;98606.10;109306;1252;60509;-58
2023/12/22 02:32:14;;;;;;;;;;;;;;;6.93;100.00;98606.42;109291;1254;59438;-62
2023/12/22 02:34:42;;;;;;;32.30;23.60;;;;;;;6.93;100.00;98604.00;109333;1253;74854;-57
2023/12/22 02:37:09;;;;;;;30.90;22.70;;;;;;;6.93;100.00;98600.24;109107;1252;65659;-57
2023/12/22 02:39:37;;;;;;;27.30;22.10;;;;;;;6.94;100.00;98598.65;109229;1252;72753;-57
2023/12/22 02:42:05;;;;;;;32.60;23.80;;;;;;;6.96;100.00;98600.34;109059;1252;59326;-62
2023/12/22 02:44:33;;;;;;;31.40;25.10;;;;;;;6.95;100.00;98603.39;109317;1253;59213;-57
2023/12/22 02:47:00;;;;;;;31.30;22.90;;;;;;;6.94;100.00;98601.44;109356;1252;74717;-57
2023/12/22 02:49:28;;;;;;;32.10;23.80;;;;;;;6.94;100.00;98599.09;109333;1252;66033;-58
2023/12/22 02:51:56;;;;;;;30.60;24.00;;;;;;;6.95;100.00;98599.39;109287;1252;72728;-63
2023/12/22 02:54:23;;;;;;;39.50;30.40;;;;;;;6.94;100.00;98598.73;109328;1252;58995;-57
2023/12/22 02:56:51;;;;;;;36.90;29.60;;;;;;;6.91;100.00;98594.98;109348;1253;59066;-57
2023/12/22 02:59:18;;;;;;;41.70;30.30;;;;;;;6.91;100.00;98594.10;109334;1253;75590;-57
2023/12/22 03:01:46;;;;;;;40.40;30.10;;;;;;;6.89;100.00;98591.98;109310;1254;67380;-62
2023/12/22 03:04:13;;;;;;;39.80;28.60;;;;;;;6.92;100.00;98584.63;109337;1253;72750;-57
2023/12/22 03:06:41;;;;;;;35.50;27.20;;;;;;;6.95;100.00;98582.63;109302;1253;59382;-58
2023/12/22 03:09:09;;;;;;;32.70;25.50;;;;;;;6.97;100.00;98575.85;109330;1254;60131;-57
2023/12/22 03:11:37;;;;;;;33.60;25.10;;;;;;;6.98;100.00;98573.65;109267;1256;74811;-62
2023/12/22 03:14:04;;;;;;;26.90;21.10;;;;;;;6.99;100.00;98571.21;109374;1253;66968;-58
2023/12/22 03:16:32;;;;;;;26.90;20.50;;;;;;;7.01;100.00;98571.46;109338;1252;72759;-57
2023/12/22 03:19:00;;;;;;;28.00;21.20;;;;;;;6.99;100.00;98571.02;109315;1253;59086;-57
2023/12/22 03:21:28;;;;;;;26.80;19.60;;;;;;;7.00;100.00;98567.51;109352;1253;60110;-57
2023/12/22 03:23:55;;;;;;;27.10;20.90;;;;;;;6.99;100.00;98566.27;109284;1252;73793;-57
2023/12/22 03:26:23;;;;;;;28.10;21.10;;;;;;;6.97;100.00;98567.67;109346;1253;67519;-57
2023/12/22 03:28:50;;;;;;;31.10;19.80;;;;;;;6.95;100.00;98563.96;109306;1253;72651;-57
2023/12/22 03:31:18;;;;;;;25.70;18.90;;;;;;;6.93;100.00;98565.53;109319;1253;60555;-57
2023/12/22 03:33:46;;;;;;;20.60;17.00;;;;;;;6.94;100.00;98560.42;109315;1252;60138;-58
2023/12/22 03:36:14;;;;;;;26.00;18.80;;;;;;;6.93;100.00;98562.04;109291;1254;74345;-57
2023/12/22 03:38:41;;;;;;;23.40;18.40;;;;;;;6.90;100.00;98557.37;109380;1252;65788;-59
2023/12/22 03:41:09;;;;;;;25.60;18.30;;;;;;;6.91;100.00;98558.99;109321;1253;72708;-58
2023/12/22 03:43:36;;;;;;;24.80;18.60;;;;;;;6.90;100.00;98558.09;109319;1253;61735;-62
2023/12/22 03:46:04;;;;;;;22.60;16.60;;;;;;;6.93;100.00;98552.50;109321;1254;59141;-57
2023/12/22 03:48:31;;;;;;;22.30;16.80;;;;;;;6.94;100.00;98546.21;109356;1253;75177;-57
2023/12/22 03:50:59;;;;;;;24.50;17.60;;;;;;;6.94;100.00;98544.02;109315;1253;66130;-57
2023/12/22 03:53:27;;;;;;;20.50;16.60;;;;;;;6.93;100.00;98537.39;109360;1253;73118;-58
2023/12/22 03:55:55;;;;;;;22.80;17.90;;;;;;;6.95;100.00;98535.31;109267;1253;62176;-58
2023/12/22 03:58:22;;;;;;;22.80;17.10;;;;;;;6.92;100.00;98529.42;109304;1252;59277;-59
2023/12/22 04:00:50;;;;;;;21.40;16.90;;;;;;;6.91;100.00;98524.20;109355;1252;73447;-57
2023/12/22 04:03:18;;;;;;;49.90;35.50;;;;;;;6.89;100.00;98523.41;109340;1252;65687;-57
2023/12/22 04:05:46;;;;;;;53.30;38.40;;;;;;;6.82;100.00;98523.92;109306;1252;72906;-61
2023/12/22 04:08:13;;;;;;;53.20;37.20;;;;;;;6.77;100.00;98519.04;109301;1253;60062;-57
2023/12/22 04:10:43;;;;;;;51.50;35.20;;;;;;;6.76;100.00;98515.14;109324;1253;59996;-60
2023/12/22 04:13:11;;;;;;;62.30;39.30;;;;;;;6.75;100.00;98514.30;109359;1253;74705;-57
2023/12/22 04:15:38;;;;;;;53.30;38.80;;;;;;;6.74;100.00;98506.20;109331;1252;66947;-57
2023/12/22 04:18:06;;;;;;;61.10;40.30;;;;;;;6.75;100.00;98499.13;109276;1253;73269;-57
2023/12/22 04:20:34;;;;;;;51.50;36.90;;;;;;;6.78;100.00;98496.21;109274;1254;60147;-59
2023/12/22 04:23:01;;;;;;;53.50;38.20;;;;;;;6.79;100.00;98494.15;109343;1252;58927;-57
2023/12/22 04:25:29;;;;;;;45.80;33.20;;;;;;;6.80;100.00;98488.48;109345;1253;74758;-57
2023/12/22 04:27:57;;;;;;;42.60;30.90;;;;;;;6.81;100.00;98486.92;109284;1253;65770;-62
2023/12/22 04:30:26;;;;;;;43.60;32.40;;;;;;;6.82;100.00;98484.05;109350;1252;72660;-57
2023/12/22 04:32:56;;;;;;;42.60;29.60;;;;;;;6.82;100.00;98485.98;109281;1253;59176;-56
2023/12/22 04:35:24;;;;;;;38.60;28.00;;;;;;;6.80;100.00;98484.61;109363;1253;60075;-57
2023/12/22 04:37:52;;;;;;;36.10;25.50;;;;;;;6.80;100.00;98481.71;109329;1253;74770;-63
2023/12/22 04:40:20;;;;;;;34.80;25.80;;;;;;;6.78;100.00;98482.83;109323;1252;66903;-57
2023/12/22 04:42:47;;;;;;;32.60;24.60;;;;;;;6.77;100.00;98485.53;109308;1253;72721;-57
2023/12/22 04:45:16;;;;;;;41.80;31.40;;;;;;;6.76;100.00;98480.20;109352;1253;60172;-58
2023/12/22 04:47:44;;;;;;;56.10;42.00;;;;;;;6.74;100.00;98474.59;109353;1253;60027;-57
2023/12/22 04:50:12;;;;;;;57.30;42.20;;;;;;;6.72;100.00;98477.42;109258;1253;74710;-63
2023/12/22 04:52:40;;;;;;;33.50;25.70;;;;;;;6.72;100.00;98477.42;109376;1253;67304;-57
2023/12/22 04:55:07;;;;;;;28.50;20.80;;;;;;;6.73;100.00;98472.88;109292;1253;71464;-57
2023/12/22 04:57:35;;;;;;;27.60;20.20;;;;;;;6.74;100.00;98473.15;109292;1252;58886;-57
2023/12/22 05:00:03;;;;;;;28.70;20.60;;;;;;;6.76;100.00;98467.81;109366;1253;60141;-57
2023/12/22 05:02:31;;;;;;;26.00;20.20;;;;;;;6.79;100.00;98466.13;109314;1253;74835;-57
2023/12/22 05:04:58;;;;;;;26.00;20.30;;;;;;;6.77;100.00;98463.66;109327;1252;66860;-59
2023/12/22 05:07:27;;;;;;;28.40;21.20;;;;;;;6.77;100.00;98457.58;109279;1253;72702;-57
2023/12/22 05:09:55;;;;;;;27.60;21.00;;;;;;;6.78;100.00;98463.70;109282;1253;60865;-57
2023/12/22 05:12:23;;;;;;;27.10;20.50;;;;;;;6.78;100.00;98460.35;109338;1253;60072;-57
2023/12/22 05:14:50;;;;;;;33.40;23.50;;;;;;;6.76;100.00;98457.52;109382;1253;74736;-57
2023/12/22 05:17:18;;;;;;;28.00;23.00;;;;;;;6.77;100.00;98453.18;109338;1252;66994;-57
2023/12/22 05:19:45;;;;;;;29.60;22.30;;;;;;;6.75;100.00;98452.55;109332;1253;72374;-57
2023/12/22 05:22:13;;;;;;;28.00;21.90;;;;;;;6.67;100.00;98449.63;109229;1252;60509;-57
2023/12/22 05:24:41;;;;;;;27.20;20.90;;;;;;;6.65;100.00;98439.43;109352;1252;58964;-57
2023/12/22 05:27:09;;;;;;;26.30;22.10;;;;;;;6.61;100.00;98447.13;109344;1252;75219;-57
2023/12/22 05:29:36;;;;;;;26.90;20.50;;;;;;;6.61;100.00;98447.64;109293;1253;67002;-58
2023/12/22 05:32:04;;;;;;;28.50;22.40;;;;;;;6.60;100.00;98447.33;109253;1253;72663;-58
2023/12/22 05:34:32;;;;;;;28.20;20.80;;;;;;;6.58;100.00;98444.02;109278;1253;61588;-59
2023/12/22 05:37:00;;;;;;;26.80;21.60;;;;;;;6.59;100.00;98435.77;109286;1253;60104;-57
2023/12/22 05:39:27;;;;;;;26.90;20.10;;;;;;;6.61;100.00;98435.30;109317;1252;74763;-58
2023/12/22 05:41:55;;;;;;;27.80;21.00;;;;;;;6.60;100.00;98435.10;109336;1252;66303;-58
2023/12/22 05:44:24;;;;;;;26.60;19.00;;;;;;;6.55;100.00;98439.40;109350;1253;72881;-57
2023/12/22 05:46:51;;;;;;;27.90;21.40;;;;;;;6.49;100.00;98439.77;109314;1253;61801;-57
2023/12/22 05:49:19;;;;;;;26.10;19.80;;;;;;;6.47;100.00;98439.65;109289;1253;60219;-57
2023/12/22 05:51:47;;;;;;;21.40;16.80;;;;;;;6.44;100.00;98441.54;109284;1252;74741;-62
2023/12/22 05:54:15;;;;;;;24.10;18.20;;;;;;;6.43;100.00;98434.88;109318;1252;66159;-56
2023/12/22 05:56:42;;;;;;;19.80;15.50;;;;;;;6.45;100.00;98437.11;109328;1253;72774;-57
2023/12/22 05:59:10;;;;;;;26.10;18.20;;;;;;;6.46;100.00;98433.71;109284;1252;58920;-57
2023/12/22 06:01:37;;;;;;;24.40;17.80;;;;;;;6.47;100.00;98427.50;109298;1253;59172;-57
2023/12/22 06:04:05;;;;;;;23.50;17.20;;;;;;;6.49;100.00;98427.05;109265;1253;73463;-58
2023/12/22 06:06:33;;;;;;;22.10;17.30;;;;;;;6.57;100.00;98429.05;109314;1252;66873;-57
2023/12/22 06:09:01;;;;;;;24.00;18.30;;;;;;;6.67;100.00;98429.95;109377;1253;71524;-57
2023/12/22 06:11:28;;;;;;;23.90;19.10;;;;;;;6.79;100.00;98428.36;109298;1253;60144;-58
2023/12/22 06:13:56;;;;;;;24.10;18.50;;;;;;;6.92;100.00;98425.23;109366;1252;60071;-58
2023/12/22 06:16:24;;;;;;;21.40;17.40;;;;;;;7.09;100.00;98423.29;109308;1253;75514;-57
2023/12/22 06:18:51;;;;;;;23.40;18.60;;;;;;;7.30;100.00;98420.96;109321;1253;65693;-57
2023/12/22 06:21:19;;;;;;;21.00;16.30;;;;;;;7.43;100.00;98419.27;109348;1252;72737;-57
2023/12/22 06:23:46;;;;;;;20.10;16.40;;;;;;;7.47;100.00;98425.95;109285;1253;60177;-58
2023/12/22 06:26:14;;;;;;;18.90;15.00;;;;;;;7.49;100.00;98422.02;109369;1253;60112;-59
2023/12/22 06:28:42;;;;;;;22.60;16.60;;;;;;;7.49;100.00;98423.38;109281;1252;74738;-59
2023/12/22 06:31:19;;;;;;;20.80;17.70;;;;;;;7.51;100.00;98413.02;109336;1253;66126;-58
2023/12/22 06:33:48;;;;;;;21.20;16.50;;;;;;;7.54;100.00;98410.27;109285;1253;72544;-59
2023/12/22 06:36:22;;;;;;;17.70;14.10;;;;;;;7.57;100.00;98409.21;109328;1253;59443;-64
2023/12/22 06:38:50;;;;;;;21.00;14.60;;;;;;;7.59;100.00;98411.77;109356;1253;59287;-62
2023/12/22 06:41:19;;;;;;;19.20;15.00;;;;;;;7.58;100.00;98404.95;109299;1252;73748;-59
2023/12/22 06:43:49;;;;;;;21.00;16.50;;;;;;;7.58;100.00;98402.39;109366;1253;67064;-64
2023/12/22 06:46:17;;;;;;;25.70;16.60;;;;;;;7.60;100.00;98404.59;109343;1252;71866;-60
2023/12/22 06:48:45;;;;;;;18.60;15.10;;;;;;;7.61;100.00;98406.76;109307;1253;61782;-59
2023/12/22 06:51:20;;;;;;;25.50;16.90;;;;;;;7.64;100.00;98403.78;109328;1253;58984;-60
2023/12/22 06:53:48;;;;;;;23.50;17.00;;;;;;;7.68;100.00;98400.34;109297;1253;74732;-65
2023/12/22 06:56:17;;;;;;;22.30;17.80;;;;;;;7.72;100.00;98398.67;109364;1252;67056;-59
2023/12/22 06:58:47;;;;;;;23.30;17.10;;;;;;;7.80;100.00;98395.91;109296;1253;71444;-57
2023/12/22 07:01:25;;;;;;;23.20;17.80;;;;;;;7.90;100.00;98398.14;109292;1253;61808;-59
2023/12/22 07:03:53;;;;;;;22.70;17.30;;;;;;;8.02;100.00;98395.67;109316;1253;60042;-59
2023/12/22 07:06:21;;;;;;;22.50;16.60;;;;;;;8.15;100.00;98397.88;109353;1252;74761;-61
2023/12/22 07:09:14;;;;;;;23.20;17.80;;;;;;;8.28;100.00;98397.77;109333;1253;66939;-59
2023/12/22 07:11:52;;;;;;;21.30;15.00;;;;;;;8.40;100.00;98396.59;109343;1253;72762;-59
2023/12/22 07:14:20;;;;;;;20.70;15.80;;;;;;;8.45;100.00;98401.39;109320;1252;59501;-59
2023/12/22 07:16:50;;;;;;;22.10;14.40;;;;;;;8.47;100.00;98399.23;109340;1251;60933;-64
2023/12/22 07:19:17;;;;;;;20.70;15.80;;;;;;;8.47;100.00;98394.02;109300;1253;74644;-59
2023/12/22 07:21:45;;;;;;;18.40;14.30;;;;;;;8.49;100.00;98388.93;109283;1253;66803;-59
2023/12/22 07:24:14;;;;;;;17.60;12.90;;;;;;;8.49;100.00;98383.94;109246;1253;71175;-56
2023/12/22 07:26:44;;;;;;;18.10;13.20;;;;;;;8.47;100.00;98381.08;109337;1253;62156;-60
2023/12/22 07:29:12;;;;;;;18.20;12.90;;;;;;;8.49;100.00;98377.34;109304;1253;58939;-57
2023/12/22 07:31:40;;;;;;;16.40;13.60;;;;;;;8.52;100.00;98372.15;109351;1253;74799;-56
2023/12/22 07:34:08;;;;;;;16.10;11.40;;;;;;;8.56;100.00;98371.55;109375;1253;66095;-56
2023/12/22 07:36:36;;;;;;;16.30;12.10;;;;;;;8.57;100.00;98366.19;109307;1253;71130;-59
2023/12/22 07:39:15;;;;;;;15.80;11.60;;;;;;;8.56;100.00;98372.73;109256;1253;61087;-58
2023/12/22 07:41:44;;;;;;;15.90;11.70;;;;;;;8.49;100.00;98372.38;109361;1253;60100;-58
2023/12/22 07:44:12;;;;;;;16.90;12.00;;;;;;;8.44;100.00;98367.61;109315;1252;74648;-59
2023/12/22 07:46:40;;;;;;;15.30;10.80;;;;;;;8.38;100.00;98362.06;109330;1253;66917;-59
2023/12/22 07:49:10;;;;;;;14.70;10.70;;;;;;;8.33;100.00;98362.61;109437;1251;73085;-59
2023/12/22 07:51:38;;;;;;;14.50;10.80;;;;;;;8.30;100.00;98358.05;109334;1252;60157;-58
2023/12/22 07:54:08;;;;;;;13.30;10.20;;;;;;;8.27;100.00;98360.42;109118;1253;306005;-58
2023/12/22 07:56:35;;;;;;;12.80;9.50;;;;;;;8.22;100.00;98360.05;109348;1251;74774;-60
2023/12/22 07:59:03;;;;;;;14.10;9.80;;;;;;;8.19;100.00;98357.27;109331;1253;65711;-58
2023/12/22 08:01:49;;;;;;;10.80;8.70;;;;;;;8.14;100.00;98350.53;109372;1252;72719;-59
2023/12/22 08:04:17;;;;;;;13.40;10.60;;;;;;;8.10;100.00;98351.16;109330;1252;59175;-58
2023/12/22 08:06:44;;;;;;;14.10;10.30;;;;;;;8.06;100.00;98351.45;109308;1253;59275;-63
2023/12/22 08:09:12;;;;;;;13.40;9.70;;;;;;;8.02;100.00;98351.47;109333;1253;74731;-58
2023/12/22 08:11:40;;;;;;;13.80;9.50;;;;;;;7.98;100.00;98347.40;109330;1253;65991;-58
2023/12/22 08:14:08;;;;;;;11.80;9.20;;;;;;;7.92;100.00;98344.29;109359;1253;72745;-58
2023/12/22 08:16:35;;;;;;;13.10;9.50;;;;;;;7.87;100.00;98345.09;109360;1253;61735;-59
2023/12/22 08:19:03;;;;;;;12.80;9.70;;;;;;;7.85;100.00;98342.09;109288;1253;60134;-58
2023/12/22 08:21:31;;;;;;;13.60;10.40;;;;;;;7.84;100.00;98345.69;109352;1252;73565;-58
2023/12/22 08:24:11;;;;;;;13.20;10.20;;;;;;;7.83;100.00;98341.52;109325;1254;66945;-60
2023/12/22 08:26:49;;;;;;;12.00;9.60;;;;;;;7.82;100.00;98342.27;109303;1253;71475;-58
2023/12/22 08:29:18;;;;;;;11.80;8.90;;;;;;;7.78;100.00;98343.57;109300;1253;60503;-58
2023/12/22 08:31:46;;;;;;;13.00;9.10;;;;;;;7.74;100.00;98339.48;109338;1253;59255;-57
2023/12/22 08:34:14;;;;;;;12.50;8.70;;;;;;;7.67;100.00;98334.71;109335;1253;74762;-61
2023/12/22 08:36:42;;;;;;;13.90;9.40;;;;;;;7.62;100.00;98333.31;109377;1252;67559;-58
2023/12/22 08:39:11;;;;;;;11.80;8.40;;;;;;;7.60;100.00;98334.05;109326;1253;71257;-58
2023/12/22 08:41:39;;;;;;;10.00;7.10;;;;;;;7.60;100.00;98331.82;109336;1253;61769;-58
2023/12/22 08:44:06;;;;;;;13.70;8.20;;;;;;;7.57;100.00;98325.89;109242;1253;60100;-64
2023/12/22 08:46:35;;;;;;;11.70;8.00;;;;;;;7.57;100.00;98324.41;109292;1253;73388;-58
2023/12/22 08:49:02;;;;;;;12.70;8.90;;;;;;;7.56;100.00;98324.30;109375;1253;66846;-58
2023/12/22 08:51:31;;;;;;;12.80;8.70;;;;;;;7.53;100.00;98322.17;109336;1253;70519;-58
2023/12/22 08:53:58;;;;;;;15.90;8.70;;;;;;;7.55;100.00;98320.29;109326;1253;61786;-58
2023/12/22 08:56:26;;;;;;;14.10;9.00;;;;;;;7.58;100.00;98318.42;109305;1253;60030;-63
2023/12/22 08:58:54;;;;;;;13.60;9.40;;;;;;;7.55;100.00;98314.06;109361;1253;74770;-56
2023/12/22 09:01:23;;;;;;;16.30;8.10;;;;;;;7.50;100.00;98312.27;109416;1252;65564;-56
2023/12/22 09:03:52;;;;;;;11.70;7.80;;;;;;;7.48;100.00;98310.52;109364;1253;72753;-59
2023/12/22 09:06:21;;;;;;;12.20;8.10;;;;;;;7.47;100.00;98313.77;109332;1252;61761;-57
2023/12/22 09:08:49;;;;;;;12.10;8.10;;;;;;;7.46;100.00;98310.38;109293;1252;61092;-56
2023/12/22 09:11:19;;;;;;;10.80;8.30;;;;;;;7.45;100.00;98306.67;109365;1251;73431;-58
2023/12/22 09:13:46;;;;;;;12.20;7.80;;;;;;;7.45;100.00;98303.20;109386;1252;67888;-58
2023/12/22 09:16:22;;;;;;;11.90;9.00;;;;;;;7.46;100.00;98298.69;109207;1253;71130;-58
2023/12/22 09:18:51;;;;;;;14.50;9.30;;;;;;;7.47;100.00;98299.17;109321;1252;60414;-59
2023/12/22 09:21:19;;;;;;;10.60;7.50;;;;;;;7.45;100.00;98296.59;109360;1252;59026;-57
2023/12/22 09:23:47;;;;;;;11.40;8.00;;;;;;;7.43;100.00;98293.29;109358;1252;74729;-56
2023/12/22 09:26:14;;;;;;;11.80;7.80;;;;;;;7.45;100.00;98285.58;109353;1253;67085;-57
2023/12/22 09:28:42;;;;;;;12.20;8.70;;;;;;;7.44;100.00;98281.20;109332;1253;72317;-57
2023/12/22 09:31:10;;;;;;;10.20;8.10;;;;;;;7.43;100.00;98279.58;109358;1252;60433;-57
2023/12/22 09:33:39;;;;;;;12.40;8.10;;;;;;;7.45;100.00;98271.05;109345;1252;60422;-58
2023/12/22 09:36:07;;;;;;;10.50;8.50;;;;;;;7.44;100.00;98269.74;109352;1253;74827;-57
2023/12/22 09:38:36;;;;;;;12.20;8.70;;;;;;;7.45;100.00;98265.00;109274;1253;65784;-57
2023/12/22 09:41:03;;;;;;;9.90;8.30;;;;;;;7.48;100.00;98260.23;109343;1252;72754;-57
2023/12/22 09:43:32;;;;;;;10.10;7.40;;;;;;;7.52;100.00;98260.06;109382;1253;60071;-56
2023/12/22 09:46:00;;;;;;;10.10;7.90;;;;;;;7.56;100.00;98264.86;109252;1253;62478;-56
2023/12/22 09:48:28;;;;;;;10.70;8.30;;;;;;;7.61;100.00;98257.05;109192;1252;74775;-56
2023/12/22 09:50:55;;;;;;;13.00;9.70;;;;;;;7.66;100.00;98253.10;109357;1253;67013;-56
2023/12/22 09:53:23;;;;;;;10.70;9.00;;;;;;;7.75;100.00;98246.80;109330;1252;74811;-58
2023/12/22 09:55:51;;;;;;;10.70;8.80;;;;;;;7.97;100.00;98239.08;109227;1253;62719;-57
2023/12/22 09:58:18;;;;;;;11.50;8.40;;;;;;;8.23;100.00;98237.42;109201;1252;61185;-62
2023/12/22 10:00:47;;;;;;;9.60;7.90;;;;;;;8.46;100.00;98228.25;109383;1253;74737;-57
2023/12/22 10:03:15;;;;;;;10.20;8.60;;;;;;;8.58;100.00;98218.65;109351;1253;66988;-56
2023/12/22 10:05:43;;;;;;;12.60;8.80;;;;;;;8.60;100.00;98209.31;109364;1253;75817;-57
2023/12/22 10:08:11;;;;;;;11.80;8.10;;;;;;;8.56;100.00;98202.09;109320;1253;64223;-62
2023/12/22 10:10:43;;;;;;;10.20;8.10;;;;;;;8.47;100.00;98191.34;109220;1252;62113;-56
2023/12/22 10:13:11;;;;;;;11.30;8.40;;;;;;;8.38;100.00;98192.83;109353;1253;74625;-56
2023/12/22 10:15:41;;;;;;;11.70;8.50;;;;;;;8.34;100.00;98182.29;109392;1253;67044;-57
2023/12/22 10:18:09;;;;;;;10.80;7.70;;;;;;;8.31;100.00;98175.13;109150;1252;72761;-56
2023/12/22 10:20:37;;;;;;;11.90;9.00;;;;;;;8.25;100.00;98166.45;109385;1252;61724;-55
2023/12/22 10:23:05;;;;;;;12.90;9.60;;;;;;;8.16;100.00;98166.34;109454;1252;60122;-56
2023/12/22 10:25:33;;;;;;;12.20;9.20;;;;;;;8.09;100.00;98162.63;109410;1252;74745;-56
2023/12/22 10:28:01;;;;;;;12.10;9.40;;;;;;;8.05;100.00;98163.02;109292;1252;67777;-61
2023/12/22 10:30:29;;;;;;;11.30;8.00;;;;;;;8.01;100.00;98154.35;109372;1253;74416;-57
2023/12/22 10:32:57;;;;;;;11.70;8.70;;;;;;;7.98;100.00;98146.86;109354;1252;61085;-57
2023/12/22 10:35:25;;;;;;;12.70;9.50;;;;;;;7.97;100.00;98149.98;109433;1252;59383;-56
2023/12/22 10:37:53;;;;;;;11.90;8.70;;;;;;;7.99;100.00;98143.66;109334;1252;73461;-59
2023/12/22 10:40:22;;;;;;;10.90;8.60;;;;;;;8.08;100.00;98139.16;109347;1253;68200;-57
2023/12/22 10:42:50;;;;;;;9.70;7.80;;;;;;;8.26;100.00;98133.11;109209;1253;71119;-56
2023/12/22 10:45:18;;;;;;;12.70;9.10;;;;;;;8.46;100.00;98132.10;109370;1253;60145;-56
2023/12/22 10:47:50;;;;;;;11.40;9.00;;;;;;;8.57;100.00;98126.29;109267;1252;60724;-61
2023/12/22 10:50:19;;;;;;;11.40;7.70;;;;;;;8.52;100.00;98125.52;109457;1252;75371;-57
2023/12/22 10:52:50;;;;;;;8.70;7.60;;;;;;;8.40;100.00;98132.30;109386;1252;68886;-57
2023/12/22 10:55:19;;;;;;;9.20;7.00;;;;;;;8.28;100.00;98122.42;109383;1253;71706;-55
2023/12/22 10:57:47;;;;;;;10.20;8.10;;;;;;;8.19;100.00;98124.94;109347;1253;60136;-60
2023/12/22 11:00:19;;;;;;;10.60;7.90;;;;;;;8.15;100.00;98122.39;109350;1253;62395;-59
2023/12/22 11:02:50;;;;;;;;;;;;;;;8.14;100.00;98121.64;109407;1253;75786;-57
2023/12/22 11:05:18;;;;;;;10.70;8.10;;;;;;;8.14;100.00;98123.35;109473;1252;67519;-56
2023/12/22 11:07:49;;;;;;;11.90;8.80;;;;;;;8.12;100.00;98126.58;109291;1253;73286;-57
2023/12/22 11:10:19;;;;;;;12.90;9.50;;;;;;;8.11;100.00;98122.90;109349;1255;62159;-56
2023/12/22 11:12:47;;;;;;;12.10;8.80;;;;;;;8.07;100.00;98121.30;109215;1252;60415;-58
2023/12/22 11:15:15;;;;;;;10.30;7.50;;;;;;;8.03;100.00;98116.83;109389;1252;77374;-55
2023/12/22 11:17:42;;;;;;;10.80;9.00;;;;;;;7.99;100.00;98120.67;109345;1253;69316;-56